createdAt,value
2019-04-25T00:01:12.909Z,6.63
2019-04-25T00:05:21.180Z,6.90
2019-04-25T00:09:31.820Z,5.60
2019-04-25T00:13:39.746Z,6.73
2019-04-25T02:04:23.856Z,7.67
2019-04-25T02:08:31.500Z,7.47
2019-04-25T02:12:44.530Z,7.03
2019-04-25T02:16:53.086Z,6.77
2019-04-25T02:21:04.136Z,7.20
2019-04-25T02:25:13.189Z,5.93
2019-04-25T02:29:21.232Z,6.20
2019-04-25T02:33:28.942Z,5.77
2019-04-25T02:37:37.162Z,5.60
2019-04-25T02:41:44.881Z,5.50
2019-04-25T02:46:11.074Z,5.73
2019-04-25T02:50:36.554Z,5.87
2019-04-25T02:54:44.955Z,6.70
2019-04-25T02:58:54.323Z,8.77
2019-04-25T03:03:03.427Z,7.93
2019-04-25T03:07:16.873Z,7.97
2019-04-25T03:11:21.413Z,9.23
2019-04-25T03:15:29.333Z,9.63
2019-04-25T03:19:59.900Z,11.13
2019-04-25T03:24:12.447Z,12.03
2019-04-25T03:28:18.249Z,11.03
2019-04-25T03:32:28.370Z,9.90
2019-04-25T03:36:35.424Z,10.53
2019-04-25T03:40:43.969Z,11.90
2019-04-25T03:44:51.755Z,11.20
2019-04-25T03:48:59.895Z,12.40
2019-04-25T03:53:07.963Z,12.20
2019-04-25T03:57:17.314Z,12.60
2019-04-25T04:01:26.350Z,11.17
2019-04-25T04:05:34.579Z,12.73
2019-04-25T04:09:43.510Z,12.63
2019-04-25T04:13:51.529Z,14.77
2019-04-25T04:18:10.691Z,14.40
2019-04-25T04:22:26.369Z,13.30
2019-04-25T04:26:34.614Z,10.93
2019-04-25T04:30:43.567Z,10.80
2019-04-25T04:34:53.613Z,13.07
2019-04-25T04:39:01.157Z,10.90
2019-04-25T04:43:11.677Z,12.13
2019-04-25T04:47:19.940Z,13.43
2019-04-25T04:51:27.667Z,11.93
2019-04-25T04:55:36.724Z,9.60
2019-04-25T04:59:44.375Z,10.80
2019-04-25T05:04:05.340Z,10.63
2019-04-25T05:08:25.057Z,9.00
2019-04-25T05:12:33.944Z,10.00
2019-04-25T05:16:43.242Z,11.27
2019-04-25T05:20:51.181Z,8.73
2019-04-25T05:24:58.971Z,8.00
2019-04-25T05:29:06.802Z,7.87
2019-04-25T05:33:18.424Z,7.20
2019-04-25T05:37:26.486Z,7.13
2019-04-25T05:41:40.179Z,5.93
2019-04-25T05:45:48.099Z,8.67
2019-04-25T05:49:56.086Z,9.40
2019-04-25T05:54:05.605Z,7.87
2019-04-25T05:58:13.836Z,6.50
2019-04-25T06:02:21.794Z,11.83
2019-04-25T06:06:30.013Z,7.80
2019-04-25T06:10:56.489Z,5.87
2019-04-25T06:15:04.759Z,6.23
2019-04-25T06:19:37.166Z,6.70
2019-04-25T06:24:07.068Z,6.77
2019-04-25T06:28:18.138Z,7.27
2019-04-25T06:32:25.827Z,6.87
2019-04-25T06:36:35.249Z,7.17
2019-04-25T06:40:43.834Z,7.33
2019-04-25T06:44:59.666Z,6.93
2019-04-25T06:49:25.486Z,6.83
2019-04-25T06:53:34.636Z,6.27
2019-04-25T06:57:44.167Z,6.23
2019-04-25T07:01:52.005Z,6.10
2019-04-25T07:05:59.895Z,6.47
2019-04-25T07:10:08.234Z,6.83
2019-04-25T07:14:17.225Z,6.07
2019-04-25T07:18:30.219Z,6.53
2019-04-25T07:22:35.409Z,5.43
2019-04-25T07:27:03.756Z,5.80
2019-04-25T07:31:25.279Z,5.80
2019-04-25T07:35:33.756Z,6.63
2019-04-25T07:39:44.150Z,5.70
2019-04-25T07:43:53.331Z,5.40
2019-04-25T07:48:01.705Z,6.50
2019-04-25T07:52:11.539Z,5.03
2019-04-25T07:56:19.079Z,5.43
2019-04-25T08:00:27.918Z,5.93
2019-04-25T08:04:36.994Z,5.67
2019-04-25T08:08:45.278Z,4.70
2019-04-25T08:12:53.639Z,4.93
2019-04-25T08:17:03.730Z,4.73
2019-04-25T08:21:11.788Z,5.23
2019-04-25T08:25:19.891Z,5.03
2019-04-25T08:29:27.833Z,4.90
2019-04-25T08:33:35.813Z,5.20
2019-04-25T08:37:44.076Z,5.00
2019-04-25T08:41:53.747Z,5.77
2019-04-25T08:46:01.408Z,5.00
2019-04-25T08:50:28.769Z,6.13
2019-04-25T08:54:50.904Z,5.17
2019-04-25T08:59:17.833Z,4.03
2019-04-25T09:03:30.518Z,5.13
2019-04-25T09:07:39.119Z,5.37
2019-04-25T09:11:48.346Z,4.60
2019-04-25T09:15:56.174Z,4.23
2019-04-25T09:20:04.607Z,3.73
2019-04-25T09:24:13.400Z,4.33
2019-04-25T09:28:21.252Z,4.67
2019-04-25T09:32:29.355Z,5.03
2019-04-25T09:36:37.682Z,4.53
2019-04-25T09:40:46.652Z,4.23
2019-04-25T09:45:20.100Z,4.43
2019-04-25T09:49:33.854Z,3.70
2019-04-25T09:53:49.601Z,4.33
2019-04-25T09:58:01.056Z,4.40
2019-04-25T10:02:09.857Z,3.93
2019-04-25T10:06:19.947Z,4.00
2019-04-25T10:10:28.286Z,4.07
2019-04-25T10:15:08.356Z,4.20
2019-04-25T10:19:16.470Z,4.00
2019-04-25T10:23:24.585Z,3.80
2019-04-25T10:27:32.414Z,4.23
2019-04-25T10:31:40.726Z,3.80
2019-04-25T10:35:53.873Z,3.13
2019-04-25T10:39:58.396Z,3.83
2019-04-25T10:44:06.505Z,4.00
2019-04-25T10:48:14.314Z,3.57
2019-04-25T10:52:23.317Z,3.30
2019-04-25T10:56:31.059Z,4.10
2019-04-25T11:00:42.205Z,3.80
2019-04-25T11:04:55.610Z,3.90
2019-04-25T11:09:03.551Z,4.70
2019-04-25T11:13:14.365Z,4.00
2019-04-25T11:17:24.094Z,4.10
2019-04-25T11:21:33.290Z,4.07
2019-04-25T11:25:42.948Z,3.93
2019-04-25T11:29:51.473Z,4.97
2019-04-25T11:33:59.785Z,5.20
2019-04-25T11:38:09.659Z,4.90
2019-04-25T11:42:17.547Z,4.93
2019-04-25T11:46:25.676Z,4.60
2019-04-25T11:50:36.907Z,5.10
2019-04-25T11:54:45.739Z,4.40
2019-04-25T11:58:54.211Z,4.73
2019-04-25T12:03:04.037Z,4.70
2019-04-25T12:07:11.782Z,5.43
2019-04-25T12:11:19.741Z,5.40
2019-04-25T12:15:27.866Z,5.33
2019-04-25T12:19:38.080Z,6.03
2019-04-25T12:23:47.858Z,4.67
2019-04-25T12:27:56.358Z,5.97
2019-04-25T12:32:04.371Z,6.97
2019-04-25T12:36:13.615Z,5.17
2019-04-25T12:40:21.406Z,5.00
2019-04-25T12:44:53.940Z,4.60
2019-04-25T12:49:01.845Z,5.63
2019-04-25T12:53:09.542Z,4.53
2019-04-25T12:57:18.235Z,4.37
2019-04-25T13:01:26.043Z,4.30
2019-04-25T13:05:34.743Z,5.30
2019-04-25T13:09:42.729Z,5.07
2019-04-25T13:13:51.153Z,4.13
2019-04-25T13:17:59.023Z,5.97
2019-04-25T13:22:08.141Z,4.97
2019-04-25T13:26:18.261Z,5.00
2019-04-25T13:31:05.374Z,5.13
2019-04-25T13:35:10.838Z,5.40
2019-04-25T13:39:20.015Z,5.50
2019-04-25T13:43:27.927Z,6.53
2019-04-25T13:47:35.702Z,4.83
2019-04-25T13:51:43.621Z,6.23
2019-04-25T13:55:51.861Z,5.00
2019-04-25T13:59:59.668Z,4.70
2019-04-25T14:04:09.539Z,4.10
2019-04-25T14:08:18.489Z,4.50
2019-04-25T14:12:28.907Z,4.53
2019-04-25T14:16:48.105Z,4.47
2019-04-25T14:21:00.830Z,5.73
2019-04-25T14:25:08.814Z,5.57
2019-04-25T14:29:16.869Z,5.00
2019-04-25T14:33:26.228Z,5.07
2019-04-25T14:37:39.453Z,5.60
2019-04-25T14:41:44.087Z,5.30
2019-04-25T14:45:52.392Z,5.50
2019-04-25T14:50:00.460Z,4.90
2019-04-25T14:54:13.780Z,6.03
2019-04-25T14:58:23.016Z,5.57
2019-04-25T15:02:34.232Z,5.37
2019-04-25T15:06:42.560Z,5.20
2019-04-25T15:10:50.659Z,5.17
2019-04-25T15:14:59.351Z,6.57
2019-04-25T15:19:07.804Z,6.00
2019-04-25T15:23:15.567Z,5.73
2019-04-25T15:27:24.114Z,6.03
2019-04-25T15:31:32.903Z,7.03
2019-04-25T15:35:46.418Z,6.40
2019-04-25T15:39:59.883Z,8.20
2019-04-25T15:44:26.670Z,9.10
2019-04-25T15:48:34.936Z,8.47
2019-04-25T15:52:44.889Z,8.13
2019-04-25T15:56:52.631Z,7.60
2019-04-25T16:01:00.714Z,10.03
2019-04-25T16:05:09.656Z,8.37
2019-04-25T16:09:18.431Z,10.63
2019-04-25T16:13:26.972Z,8.53
2019-04-25T16:17:35.617Z,9.43
2019-04-25T16:21:43.882Z,11.73
2019-04-25T16:25:51.915Z,11.43
2019-04-25T16:30:00.074Z,9.27
2019-04-25T16:34:08.249Z,11.33
2019-04-25T16:38:16.411Z,9.70
2019-04-25T16:42:25.033Z,11.80
2019-04-25T16:46:34.197Z,10.03
2019-04-25T16:50:42.352Z,10.13
2019-04-25T16:54:52.579Z,10.17
2019-04-25T16:59:01.348Z,12.73
2019-04-25T17:03:10.128Z,14.40
2019-04-25T17:07:18.065Z,16.37
2019-04-25T17:11:26.916Z,18.97
2019-04-25T17:16:04.279Z,20.03
2019-04-25T17:20:34.674Z,35.53
2019-04-25T17:24:42.766Z,33.70
2019-04-25T17:28:52.199Z,34.27
2019-04-25T17:33:25.575Z,17.83
2019-04-25T17:37:40.754Z,29.23
2019-04-25T17:41:50.767Z,18.03
2019-04-25T17:45:59.046Z,17.70
2019-04-25T17:50:07.514Z,17.00
2019-04-25T17:54:15.301Z,15.53
2019-04-25T17:58:23.441Z,17.83
2019-04-25T18:02:31.341Z,14.93
2019-04-25T18:06:40.002Z,15.13
2019-04-25T18:10:47.981Z,15.57
2019-04-25T18:14:57.257Z,14.80
2019-04-25T18:19:18.742Z,15.03
2019-04-25T18:23:43.999Z,15.37
2019-04-25T18:28:16.819Z,21.57
2019-04-25T18:32:26.843Z,23.07
2019-04-25T18:36:52.430Z,22.60
2019-04-25T18:41:14.371Z,22.00
2019-04-25T18:45:26.416Z,19.63
2019-04-25T18:49:33.946Z,18.60
2019-04-25T18:54:16.414Z,18.57
2019-04-25T18:58:42.038Z,23.30
2019-04-25T19:03:26.881Z,25.67
2019-04-25T19:07:35.728Z,29.40
2019-04-25T19:11:43.775Z,15.57
2019-04-25T19:15:51.611Z,13.00
2019-04-25T19:19:59.215Z,12.83
2019-04-25T19:24:07.137Z,13.57
2019-04-25T19:28:15.213Z,14.90
2019-04-25T19:32:25.038Z,11.60
2019-04-25T19:36:32.796Z,9.67
2019-04-25T19:40:55.269Z,12.17
2019-04-25T19:45:03.635Z,17.73
2019-04-25T19:49:11.369Z,18.10
2019-04-25T19:53:19.601Z,15.37
2019-04-25T19:57:27.477Z,16.73
2019-04-25T20:01:35.321Z,19.50
2019-04-25T20:06:07.589Z,20.07
2019-04-25T20:10:28.561Z,23.67
2019-04-25T20:14:36.526Z,15.87
2019-04-25T20:18:45.639Z,13.80
2019-04-25T20:22:54.543Z,14.07
2019-04-25T20:27:03.456Z,14.83
2019-04-25T20:31:11.368Z,15.57
2019-04-25T20:35:19.268Z,21.13
2019-04-25T20:39:27.843Z,21.17
2019-04-25T20:43:36.628Z,16.63
2019-04-25T20:47:44.336Z,15.97
2019-04-25T20:51:52.636Z,16.43
2019-04-25T20:56:00.977Z,16.37
2019-04-25T21:00:09.976Z,15.57
2019-04-25T21:04:35.838Z,16.27
2019-04-25T21:08:43.765Z,18.47
2019-04-25T21:12:51.829Z,19.73
2019-04-25T21:17:03.934Z,17.33
2019-04-25T21:21:11.710Z,19.43
2019-04-25T21:25:19.518Z,19.33
2019-04-25T21:29:27.319Z,18.37
2019-04-25T21:33:35.248Z,19.33
2019-04-25T21:37:44.162Z,18.47
2019-04-25T21:42:02.086Z,18.73
2019-04-25T21:46:10.130Z,17.63
2019-04-25T21:50:18.335Z,16.50
2019-04-25T21:54:26.583Z,17.93
2019-04-25T21:58:34.785Z,18.23
2019-04-25T22:02:43.742Z,16.87
2019-04-25T22:06:52.852Z,17.57
2019-04-25T22:11:01.507Z,16.97
2019-04-25T22:15:12.205Z,17.63
2019-04-25T22:19:20.070Z,16.03
2019-04-25T22:23:28.102Z,16.03
2019-04-25T22:27:37.209Z,16.80
2019-04-25T22:31:52.508Z,17.87
2019-04-25T22:36:13.513Z,18.70
2019-04-25T22:40:21.520Z,15.83
2019-04-25T22:44:29.628Z,15.87
2019-04-25T22:48:50.292Z,13.23
2019-04-25T22:52:58.092Z,11.40
2019-04-25T22:57:06.374Z,9.80
2019-04-25T23:01:36.532Z,10.77
2019-04-25T23:05:48.836Z,11.63
2019-04-25T23:09:56.672Z,11.20
2019-04-25T23:14:05.300Z,11.90
2019-04-25T23:18:14.028Z,8.87
2019-04-25T23:22:21.748Z,8.93
2019-04-25T23:26:52.183Z,9.20
2019-04-25T23:31:10.188Z,7.57
2019-04-25T23:35:25.396Z,7.83
2019-04-25T23:39:27.995Z,8.33
2019-04-25T23:43:35.898Z,8.80
2019-04-25T23:47:44.542Z,9.27
2019-04-25T23:51:52.865Z,8.97
2019-04-25T23:56:00.771Z,9.33
